Time;durP1;ratioP1;P1;durP2;ratioP2;P2;SDS_P1;SDS_P2;PMS_P1;PMS_P2;Temp;Humidity;BMP_temperature;BMP_pressure;BME280_temperature;BME280_humidity;BME280_pressure;Samples;Min_cycle;Max_cycle;Signal;HPM_P1;HPM_P2
2021/12/09 00:01:05;;;;;;;;;;;;;;;0.16;100.00;100018.16;5166081;28;20039;-65
2021/12/09 00:03:40;;;;;;;20.42;9.77;;;;;;;0.11;100.00;100018.34;5162807;28;19922;-66
2021/12/09 00:06:12;;;;;;;19.17;9.23;;;;;;;0.15;100.00;100021.69;5162038;28;21279;-66
2021/12/09 00:08:43;;;;;;;18.08;9.38;;;;;;;0.14;100.00;100020.00;5163729;28;20093;-66
2021/12/09 00:11:15;;;;;;;22.67;10.13;;;;;;;0.12;100.00;100021.84;5164441;28;20472;-66
2021/12/09 00:13:47;;;;;;;21.48;10.27;;;;;;;0.13;100.00;100023.53;5160462;28;20042;-66
2021/12/09 00:16:18;;;;;;;23.63;9.77;;;;;;;0.12;100.00;100019.22;5166545;28;20031;-66
2021/12/09 00:18:49;;;;;;;19.05;9.73;;;;;;;0.07;100.00;100022.03;5171042;28;20031;-66
2021/12/09 00:21:20;;;;;;;21.55;10.80;;;;;;;0.08;100.00;100020.28;5167859;28;20026;-66
2021/12/09 00:23:52;;;;;;;24.05;10.32;;;;;;;0.08;100.00;100020.28;5167436;28;20481;-66
2021/12/09 00:26:23;;;;;;;20.02;10.98;;;;;;;0.10;100.00;100019.28;5168775;28;20125;-66
2021/12/09 00:28:56;;;;;;;16.77;10.13;;;;;;;0.06;100.00;100036.09;5166328;28;20077;-66
2021/12/09 00:31:27;;;;;;;27.27;11.32;;;;;;;0.10;100.00;100031.56;5168233;28;20062;-66
2021/12/09 00:34:00;;;;;;;21.92;10.40;;;;;;;0.12;100.00;100025.31;5168416;28;20035;-66
2021/12/09 00:36:40;;;;;;;18.92;10.10;;;;;;;0.05;100.00;100033.53;5162261;28;20037;-66
2021/12/09 00:39:12;;;;;;;22.20;10.35;;;;;;;0.02;100.00;100037.16;5165240;28;20058;-66
2021/12/09 00:41:43;;;;;;;24.73;10.60;;;;;;;0.03;100.00;100040.63;5163735;28;20045;-66
2021/12/09 00:44:15;;;;;;;22.50;11.45;;;;;;;0.05;100.00;100037.00;5161762;28;20023;-66
2021/12/09 00:46:46;;;;;;;21.02;10.05;;;;;;;0.09;100.00;100046.41;5165746;28;20026;-66
2021/12/09 00:49:20;;;;;;;23.92;10.48;;;;;;;-0.01;100.00;100034.66;5163555;28;20035;-66
2021/12/09 00:51:51;;;;;;;18.20;10.13;;;;;;;0.08;100.00;100021.13;5166093;28;20059;-66
2021/12/09 00:54:22;;;;;;;22.80;10.52;;;;;;;0.10;100.00;100032.41;5164748;28;20121;-66
2021/12/09 00:56:54;;;;;;;25.42;11.02;;;;;;;0.11;100.00;100028.00;5164384;28;20041;-66
2021/12/09 00:59:25;;;;;;;22.95;10.90;;;;;;;0.19;100.00;100031.09;5165908;28;20117;-65
2021/12/09 01:01:57;;;;;;;22.55;12.25;;;;;;;0.23;100.00;100034.44;5164324;28;20085;-65
2021/12/09 01:04:28;;;;;;;23.90;10.88;;;;;;;0.17;100.00;100041.69;5165605;28;20114;-65
2021/12/09 01:06:59;;;;;;;20.98;10.23;;;;;;;0.23;100.00;100042.31;5162652;28;20035;-65
2021/12/09 01:09:30;;;;;;;20.77;10.38;;;;;;;0.11;100.00;100041.97;5160817;28;20117;-66
2021/12/09 01:12:04;;;;;;;17.42;10.43;;;;;;;0.11;100.00;100041.13;5162804;28;20034;-66
2021/12/09 01:14:37;;;;;;;25.33;10.30;;;;;;;0.08;100.00;100038.66;5148885;28;20085;-66
2021/12/09 01:17:10;;;;;;;23.08;10.60;;;;;;;0.07;100.00;100039.56;5160972;28;20023;-66
2021/12/09 01:19:41;;;;;;;21.63;10.73;;;;;;;0.03;100.00;100049.34;5167852;28;20058;-66
2021/12/09 01:22:12;;;;;;;25.70;10.85;;;;;;;0.06;100.00;100057.06;5162106;28;20424;-66
2021/12/09 01:24:43;;;;;;;23.73;10.02;;;;;;;0.07;100.00;100045.66;5147412;28;20045;-66
2021/12/09 01:27:15;;;;;;;21.25;10.48;;;;;;;0.05;100.00;100047.50;5166622;28;20034;-66
2021/12/09 01:29:52;;;;;;;24.13;11.35;;;;;;;0.02;100.00;100050.28;5164945;28;20031;-66
2021/12/09 01:32:29;;;;;;;24.00;10.88;;;;;;;-0.03;100.00;100049.63;5163284;28;20074;-66
2021/12/09 01:35:00;;;;;;;22.80;10.73;;;;;;;-0.01;100.00;100050.41;5165260;28;20030;-66
2021/12/09 01:37:33;;;;;;;20.60;10.60;;;;;;;-0.08;100.00;100055.06;5162288;28;20514;-66
2021/12/09 01:40:07;;;;;;;22.88;10.70;;;;;;;-0.10;100.00;100053.44;5164502;28;20030;-66
2021/12/09 01:42:38;;;;;;;24.08;10.70;;;;;;;-0.07;100.00;100048.91;5163799;28;20420;-66
2021/12/09 01:45:10;;;;;;;26.10;11.18;;;;;;;-0.05;100.00;100044.44;5163453;28;20038;-66
2021/12/09 01:47:42;;;;;;;26.10;11.07;;;;;;;-0.04;100.00;100053.16;5165927;28;20035;-66
2021/12/09 01:50:15;;;;;;;23.80;10.98;;;;;;;-0.15;100.00;100047.53;5164707;28;20500;-66
2021/12/09 01:52:46;;;;;;;23.75;10.60;;;;;;;-0.20;100.00;100047.75;5162863;28;20030;-66
2021/12/09 01:55:19;;;;;;;30.02;11.80;;;;;;;-0.22;100.00;100039.09;5167211;28;20393;-66
2021/12/09 01:57:51;;;;;;;22.05;11.35;;;;;;;-0.17;100.00;100046.75;5160366;28;20527;-66
2021/12/09 02:00:26;;;;;;;22.98;10.88;;;;;;;-0.23;100.00;100042.63;5158456;28;20388;-66
2021/12/09 02:02:58;;;;;;;26.98;11.07;;;;;;;-0.19;100.00;100052.09;5163217;28;20036;-66
2021/12/09 02:05:29;;;;;;;19.60;10.25;;;;;;;-0.17;100.00;100047.63;5162360;28;20033;-66
2021/12/09 02:08:00;;;;;;;25.35;11.00;;;;;;;-0.20;100.00;100039.88;5160165;28;20034;-66
2021/12/09 02:10:32;;;;;;;23.60;10.52;;;;;;;-0.30;100.00;100042.06;5160163;28;20096;-66
2021/12/09 02:13:05;;;;;;;21.88;10.65;;;;;;;-0.22;100.00;100034.72;5160232;28;20080;-66
2021/12/09 02:15:38;;;;;;;20.17;10.73;;;;;;;-0.24;100.00;100040.94;5160690;28;20046;-66
2021/12/09 02:18:13;;;;;;;22.55;10.65;;;;;;;-0.26;100.00;100035.78;5168571;28;20027;-66
2021/12/09 02:20:44;;;;;;;22.40;10.43;;;;;;;-0.29;100.00;100043.78;5167822;28;20346;-66
2021/12/09 02:23:17;;;;;;;27.13;10.32;;;;;;;-0.27;100.00;100039.34;5170122;28;20038;-66
2021/12/09 02:25:48;;;;;;;23.33;10.60;;;;;;;-0.29;100.00;100032.44;5165543;28;20816;-66
2021/12/09 02:28:20;;;;;;;27.80;11.25;;;;;;;-0.28;100.00;100029.75;5167559;28;20037;-66
2021/12/09 02:30:51;;;;;;;23.00;10.60;;;;;;;-0.30;100.00;100033.38;5165831;28;20057;-66
2021/12/09 02:33:23;;;;;;;24.35;10.30;;;;;;;-0.33;100.00;100030.88;5164615;28;20537;-66
2021/12/09 02:35:54;;;;;;;25.45;10.73;;;;;;;-0.34;100.00;100029.19;5165003;28;20031;-66
2021/12/09 02:38:26;;;;;;;22.88;10.25;;;;;;;-0.37;100.00;100038.00;5169563;28;20373;-66
2021/12/09 02:40:57;;;;;;;24.58;10.45;;;;;;;-0.43;100.00;100031.28;5148180;28;20115;-66
2021/12/09 02:43:29;;;;;;;20.35;10.23;;;;;;;-0.40;100.00;100030.31;5169210;28;20081;-66
2021/12/09 02:46:01;;;;;;;20.77;10.20;;;;;;;-0.44;100.00;100034.84;5165954;28;20404;-66
2021/12/09 02:48:32;;;;;;;23.65;9.68;;;;;;;-0.44;100.00;100045.31;5166419;28;20045;-66
2021/12/09 02:51:06;;;;;;;23.65;10.73;;;;;;;-0.43;100.00;100035.69;5166596;28;20145;-66
2021/12/09 02:53:38;;;;;;;19.40;9.88;;;;;;;-0.38;100.00;100041.56;5167937;28;20117;-66
2021/12/09 02:56:10;;;;;;;24.73;11.38;;;;;;;-0.37;100.00;100032.78;5168211;28;20061;-66
2021/12/09 02:58:41;;;;;;;25.02;10.52;;;;;;;-0.34;100.00;100037.88;5163922;28;20027;-66
2021/12/09 03:01:17;;;;;;;25.88;10.48;;;;;;;-0.44;100.00;100045.31;5164343;28;20045;-66
2021/12/09 03:03:52;;;;;;;21.15;9.80;;;;;;;-0.42;100.00;100040.00;5159464;28;20035;-66
2021/12/09 03:06:36;;;;;;;21.52;10.40;;;;;;;-0.43;100.00;100039.13;5166377;28;20030;-66
2021/12/09 03:09:13;;;;;;;23.00;10.63;;;;;;;-0.42;100.00;100055.72;5162987;28;20114;-66
2021/12/09 03:11:53;;;;;;;26.02;10.48;;;;;;;-0.45;100.00;100048.00;5162450;28;20209;-66
2021/12/09 03:14:24;;;;;;;24.15;9.70;;;;;;;-0.48;100.00;100058.59;5162048;28;20039;-66
2021/12/09 03:16:55;;;;;;;23.33;9.43;;;;;;;-0.50;100.00;100055.19;5163197;28;20118;-66
2021/12/09 03:19:27;;;;;;;24.10;9.80;;;;;;;-0.50;100.00;100056.06;5164249;28;20522;-66
2021/12/09 03:21:58;;;;;;;24.25;10.05;;;;;;;-0.48;100.00;100063.84;5166847;28;20507;-66
2021/12/09 03:24:29;;;;;;;22.02;9.18;;;;;;;-0.53;100.00;100066.66;5166654;28;20148;-66
2021/12/09 03:27:01;;;;;;;21.60;9.43;;;;;;;-0.55;100.00;100070.28;5169636;28;20038;-66
2021/12/09 03:29:32;;;;;;;22.30;9.13;;;;;;;-0.61;100.00;100077.47;5171797;28;20076;-66
2021/12/09 03:32:07;;;;;;;19.10;8.50;;;;;;;-0.55;100.00;100078.16;5166000;28;20098;-66
2021/12/09 03:34:40;;;;;;;23.38;9.18;;;;;;;-0.51;100.00;100077.09;5163402;28;20047;-66
2021/12/09 03:37:16;;;;;;;23.23;9.40;;;;;;;-0.48;100.00;100064.72;5162651;28;20132;-66
2021/12/09 03:39:49;;;;;;;21.20;8.88;;;;;;;-0.53;100.00;100063.22;5164141;28;20026;-66
2021/12/09 03:42:24;;;;;;;25.52;8.57;;;;;;;-0.54;100.00;100077.22;5164390;28;20511;-65
2021/12/09 03:44:57;;;;;;;17.25;8.20;;;;;;;-0.52;100.00;100078.84;5164800;28;20029;-65
2021/12/09 03:47:30;;;;;;;21.38;8.63;;;;;;;-0.51;100.00;100079.72;5161577;28;20480;-66
2021/12/09 03:50:04;;;;;;;23.33;8.18;;;;;;;-0.62;100.00;100085.41;5161058;28;20548;-66
2021/12/09 03:52:35;;;;;;;17.23;7.97;;;;;;;-0.65;100.00;100082.94;5170452;28;20038;-66
2021/12/09 03:55:07;;;;;;;20.13;8.27;;;;;;;-0.62;100.00;100088.03;5167790;28;20641;-66
2021/12/09 03:57:39;;;;;;;18.48;8.32;;;;;;;-0.63;100.00;100089.78;5165883;28;20611;-66
2021/12/09 04:00:11;;;;;;;15.68;7.80;;;;;;;-0.62;100.00;100088.88;5169254;28;20035;-66
2021/12/09 04:02:42;;;;;;;19.80;7.88;;;;;;;-0.63;100.00;100089.78;5170224;28;20030;-66
2021/12/09 04:05:14;;;;;;;17.90;8.10;;;;;;;-0.63;100.00;100086.34;5167028;28;20085;-65
2021/12/09 04:07:45;;;;;;;16.23;7.35;;;;;;;-0.70;100.00;100080.47;5150244;28;20026;-65
2021/12/09 04:10:17;;;;;;;18.25;7.93;;;;;;;-0.63;100.00;100073.22;5168269;28;20086;-65
2021/12/09 04:12:48;;;;;;;17.27;7.32;;;;;;;-0.65;100.00;100068.06;5169694;28;20089;-65
2021/12/09 04:15:19;;;;;;;22.30;8.02;;;;;;;-0.64;100.00;100072.34;5169205;28;20053;-65
2021/12/09 04:17:51;;;;;;;18.95;7.80;;;;;;;-0.67;100.00;100077.75;5170049;28;20049;-65
2021/12/09 04:20:22;;;;;;;20.75;8.02;;;;;;;-0.63;100.00;100081.09;5169367;28;20065;-65
2021/12/09 04:22:54;;;;;;;17.50;7.50;;;;;;;-0.72;100.00;100084.94;5167360;28;20031;-65
2021/12/09 04:25:25;;;;;;;17.67;7.30;;;;;;;-0.66;100.00;100091.69;5170614;28;20066;-65
2021/12/09 04:27:57;;;;;;;26.88;9.25;;;;;;;-0.68;100.00;100083.88;5163638;28;20489;-65
2021/12/09 04:30:29;;;;;;;21.70;7.25;;;;;;;-0.73;100.00;100088.50;5169168;28;20555;-65
2021/12/09 04:33:01;;;;;;;20.80;6.70;;;;;;;-0.74;100.00;100093.78;5168407;28;20061;-65
2021/12/09 04:35:32;;;;;;;16.75;7.47;;;;;;;-0.70;100.00;100095.34;5168007;28;20157;-65
2021/12/09 04:38:03;;;;;;;18.05;6.90;;;;;;;-0.76;100.00;100093.00;5171844;28;20419;-65
2021/12/09 04:40:34;;;;;;;14.30;6.78;;;;;;;-0.76;100.00;100096.47;5167487;28;20039;-65
2021/12/09 04:43:06;;;;;;;16.58;7.18;;;;;;;-0.72;100.00;100099.81;5168808;28;20041;-65
2021/12/09 04:45:39;;;;;;;17.65;6.65;;;;;;;-0.76;100.00;100109.56;5168293;28;20034;-65
2021/12/09 04:48:10;;;;;;;20.35;7.22;;;;;;;-0.79;100.00;100099.19;5168389;28;20037;-65
2021/12/09 04:50:42;;;;;;;20.95;6.82;;;;;;;-0.75;100.00;100105.16;5168760;28;20491;-65
2021/12/09 04:53:14;;;;;;;20.85;6.85;;;;;;;-0.83;100.00;100100.25;5171040;28;20042;-65
2021/12/09 04:55:45;;;;;;;15.73;6.78;;;;;;;-0.78;100.00;100092.22;5164678;28;20349;-66
2021/12/09 04:58:16;;;;;;;23.60;7.68;;;;;;;-0.82;100.00;100101.97;5164841;28;20113;-65
2021/12/09 05:00:49;;;;;;;17.58;7.43;;;;;;;-0.80;100.00;100090.50;5168379;28;20035;-65
2021/12/09 05:03:20;;;;;;;18.67;6.60;;;;;;;-0.85;100.00;100094.22;5162505;28;20030;-65
2021/12/09 05:05:53;;;;;;;15.68;6.50;;;;;;;-0.83;100.00;100092.38;5167977;28;20039;-65
2021/12/09 05:08:28;;;;;;;21.13;6.82;;;;;;;-0.83;100.00;100095.84;5168721;28;20493;-65
2021/12/09 05:12:01;;;;;;;19.40;7.00;;;;;;;-0.84;100.00;100102.03;5167028;28;20039;-65
2021/12/09 05:14:03;;;;;;;17.25;6.20;;;;;;;-0.85;100.00;100100.31;5152496;28;20045;-65
2021/12/09 05:16:34;;;;;;;17.50;7.10;;;;;;;-0.82;100.00;100110.66;5163666;28;20047;-65
2021/12/09 05:19:06;;;;;;;19.50;6.45;;;;;;;-0.83;100.00;100114.19;5169052;28;20416;-66
2021/12/09 05:21:39;;;;;;;19.33;7.07;;;;;;;-0.81;100.00;100117.59;5168960;28;20508;-65
2021/12/09 05:24:12;;;;;;;16.95;7.20;;;;;;;-0.88;100.00;100117.91;5164975;28;20034;-65
2021/12/09 05:26:48;;;;;;;17.55;7.13;;;;;;;-0.83;100.00;100108.09;5160657;28;20037;-65
2021/12/09 05:29:22;;;;;;;15.85;7.07;;;;;;;-0.87;100.00;100109.16;5164725;28;20177;-65
2021/12/09 05:32:10;;;;;;;20.70;7.57;;;;;;;-0.84;100.00;100111.66;5168036;28;20066;-65
2021/12/09 05:34:47;;;;;;;20.77;7.60;;;;;;;-0.90;100.00;100117.13;5166429;28;20121;-65
2021/12/09 05:37:21;;;;;;;17.33;6.88;;;;;;;-0.90;100.00;100114.50;5172026;28;20042;-65
2021/12/09 05:39:54;;;;;;;18.23;7.32;;;;;;;-0.83;100.00;100115.97;5169869;28;20436;-65
2021/12/09 05:42:26;;;;;;;19.65;7.68;;;;;;;-0.92;100.00;100116.31;5164559;28;20031;-65
2021/12/09 05:44:59;;;;;;;16.90;6.80;;;;;;;-0.86;100.00;100122.19;5162439;28;20502;-65
2021/12/09 05:47:31;;;;;;;16.55;7.38;;;;;;;-0.84;100.00;100125.59;5160451;28;20884;-65
2021/12/09 05:50:02;;;;;;;26.27;8.00;;;;;;;-0.91;100.00;100129.38;5161969;28;20030;-65
2021/12/09 05:52:34;;;;;;;21.50;7.85;;;;;;;-0.88;100.00;100133.63;5163214;28;20035;-65
2021/12/09 05:55:05;;;;;;;21.10;7.68;;;;;;;-0.84;100.00;100125.59;5162669;28;20601;-65
2021/12/09 05:57:37;;;;;;;21.20;7.68;;;;;;;-0.86;100.00;100126.59;5166619;28;20692;-65
2021/12/09 06:00:09;;;;;;;20.95;8.18;;;;;;;-0.87;100.00;100135.34;5165906;28;20054;-65
2021/12/09 06:02:40;;;;;;;21.40;9.23;;;;;;;-0.90;100.00;100124.97;5160835;28;20022;-65
2021/12/09 06:05:11;;;;;;;24.27;8.68;;;;;;;-0.86;100.00;100132.66;5162389;28;20035;-65
2021/12/09 06:07:43;;;;;;;20.05;7.80;;;;;;;-0.86;100.00;100134.44;5147320;28;20085;-65
2021/12/09 06:10:14;;;;;;;19.10;7.70;;;;;;;-0.89;100.00;100129.31;5165566;28;20030;-65
2021/12/09 06:12:45;;;;;;;18.80;7.97;;;;;;;-0.91;100.00;100128.53;5168138;28;20496;-65
2021/12/09 06:15:17;;;;;;;21.58;8.05;;;;;;;-0.88;100.00;100136.25;5170188;28;20093;-65
2021/12/09 06:17:48;;;;;;;20.65;8.40;;;;;;;-0.85;100.00;100134.34;5171382;28;20472;-65
2021/12/09 06:20:20;;;;;;;20.88;8.98;;;;;;;-0.87;100.00;100133.56;5171564;28;20027;-65
2021/12/09 06:22:51;;;;;;;23.13;8.65;;;;;;;-0.89;100.00;100121.47;5173738;28;20034;-65
2021/12/09 06:25:23;;;;;;;20.08;8.63;;;;;;;-0.88;100.00;100124.03;5173403;28;20031;-65
2021/12/09 06:27:57;;;;;;;23.15;8.77;;;;;;;-0.84;100.00;100119.50;5172132;28;20070;-65
2021/12/09 06:30:28;;;;;;;27.67;9.43;;;;;;;-0.85;100.00;100121.25;5170670;28;20460;-65
2021/12/09 06:33:01;;;;;;;19.02;9.00;;;;;;;-0.81;100.00;100119.38;5169669;28;20038;-66
2021/12/09 06:35:33;;;;;;;23.92;8.90;;;;;;;-0.86;100.00;100132.66;5170012;28;20058;-65
2021/12/09 06:38:08;;;;;;;17.08;8.50;;;;;;;-0.89;100.00;100129.31;5172511;28;20035;-65
2021/12/09 06:40:40;;;;;;;22.17;9.05;;;;;;;-0.87;100.00;100132.72;5167508;28;20117;-65
2021/12/09 06:43:12;;;;;;;27.17;9.40;;;;;;;-0.90;100.00;100136.31;5168256;28;20114;-65
2021/12/09 06:45:44;;;;;;;23.27;8.93;;;;;;;-0.91;100.00;100144.22;5168365;28;20042;-65
2021/12/09 06:48:15;;;;;;;21.02;8.80;;;;;;;-0.88;100.00;100144.09;5170956;28;20029;-65
2021/12/09 06:50:47;;;;;;;20.15;8.75;;;;;;;-0.87;100.00;100141.41;5172823;28;20027;-65
2021/12/09 06:53:19;;;;;;;22.63;8.77;;;;;;;-0.88;100.00;100139.72;5171181;28;20027;-65
2021/12/09 06:55:50;;;;;;;22.65;9.32;;;;;;;-0.86;100.00;100140.53;5171052;28;20054;-65
2021/12/09 06:58:22;;;;;;;22.90;9.13;;;;;;;-0.88;100.00;100141.47;5170182;28;20144;-65
2021/12/09 07:00:54;;;;;;;22.92;9.30;;;;;;;-0.85;100.00;100139.59;5172468;28;20465;-65
2021/12/09 07:03:26;;;;;;;25.95;10.13;;;;;;;-0.86;100.00;100142.28;5170777;28;20400;-65
2021/12/09 07:06:01;;;;;;;24.35;9.10;;;;;;;-0.86;100.00;100150.16;5171122;28;20026;-65
2021/12/09 07:08:35;;;;;;;24.92;9.25;;;;;;;-0.85;100.00;100149.22;5172290;28;20062;-65
2021/12/09 07:11:07;;;;;;;19.90;8.95;;;;;;;-0.88;100.00;100151.94;5172999;28;20030;-65
2021/12/09 07:13:39;;;;;;;20.13;8.57;;;;;;;-0.85;100.00;100147.44;5170770;28;20041;-65
2021/12/09 07:16:10;;;;;;;21.30;9.20;;;;;;;-0.82;100.00;100152.56;5168024;28;20026;-65
2021/12/09 07:18:43;;;;;;;24.70;9.63;;;;;;;-0.81;100.00;100156.88;5172504;28;20030;-66
2021/12/09 07:21:14;;;;;;;21.40;10.45;;;;;;;-0.85;100.00;100155.31;5173694;28;20057;-66
2021/12/09 07:23:46;;;;;;;19.95;8.43;;;;;;;-0.83;100.00;100157.88;5170459;28;20489;-65
2021/12/09 07:26:17;;;;;;;26.48;9.73;;;;;;;-0.84;100.00;100156.16;5170249;28;20030;-65
2021/12/09 07:28:48;;;;;;;20.30;8.73;;;;;;;-0.77;100.00;100160.22;5164922;28;20035;-65
2021/12/09 07:31:20;;;;;;;19.67;8.38;;;;;;;-0.76;100.00;100153.25;5165534;28;20061;-65
2021/12/09 07:33:52;;;;;;;19.83;9.05;;;;;;;-0.79;100.00;100154.19;5164666;28;20031;-66
2021/12/09 07:36:24;;;;;;;17.83;9.27;;;;;;;-0.75;100.00;100155.78;5166725;28;20601;-65
2021/12/09 07:38:55;;;;;;;23.70;8.95;;;;;;;-0.74;100.00;100157.50;5166045;28;20132;-65
2021/12/09 07:41:27;;;;;;;25.35;9.57;;;;;;;-0.74;100.00;100159.28;5169295;28;20106;-65
2021/12/09 07:44:02;;;;;;;23.48;9.98;;;;;;;-0.75;100.00;100160.16;5170764;28;20034;-65
2021/12/09 07:46:35;;;;;;;23.13;9.30;;;;;;;-0.70;100.00;100158.22;5170772;28;20041;-65
2021/12/09 07:49:06;;;;;;;25.38;9.88;;;;;;;-0.70;100.00;100158.22;5170066;28;20050;-65
2021/12/09 07:51:37;;;;;;;27.70;10.30;;;;;;;-0.72;100.00;100170.53;5170092;28;20027;-65
2021/12/09 07:54:09;;;;;;;23.88;9.82;;;;;;;-0.71;100.00;100166.97;5170843;28;20026;-65
2021/12/09 07:56:40;;;;;;;19.90;9.45;;;;;;;-0.65;100.00;100162.38;5153045;28;20038;-66
2021/12/09 07:59:12;;;;;;;30.38;9.65;;;;;;;-0.65;100.00;100167.59;5171969;28;20022;-65
2021/12/09 08:01:45;;;;;;;24.20;10.45;;;;;;;-0.64;100.00;100164.03;5153931;28;20038;-65
2021/12/09 08:04:16;;;;;;;24.55;10.02;;;;;;;-0.67;100.00;100169.44;5171096;28;20077;-65
2021/12/09 08:06:48;;;;;;;26.73;10.02;;;;;;;-0.65;100.00;100169.38;5170762;28;20117;-65
2021/12/09 08:09:19;;;;;;;28.65;10.35;;;;;;;-0.64;100.00;100179.75;5172715;28;20042;-65
2021/12/09 08:11:51;;;;;;;24.95;10.43;;;;;;;-0.53;100.00;100186.34;5172198;28;20034;-65
2021/12/09 08:14:22;;;;;;;24.50;10.20;;;;;;;-0.43;100.00;100185.03;5176394;28;20436;-65
2021/12/09 08:17:10;;;;;;;23.80;10.57;;;;;;;-0.31;100.00;100186.28;5172477;28;20105;-65
2021/12/09 08:19:41;;;;;;;28.77;10.80;;;;;;;-0.20;100.00;100197.19;5172287;28;20041;-66
2021/12/09 08:22:14;;;;;;;25.50;11.45;;;;;;;-0.05;100.00;100193.06;5172852;28;20031;-66
2021/12/09 08:24:46;;;;;;;25.67;10.82;;;;;;;0.05;100.00;100185.66;5174868;28;20121;-66
2021/12/09 08:27:17;;;;;;;28.25;11.30;;;;;;;0.14;100.00;100186.09;5172164;28;20135;-66
2021/12/09 08:29:49;;;;;;;29.05;11.23;;;;;;;0.18;100.00;100186.81;5175167;28;20158;-66
2021/12/09 08:32:20;;;;;;;29.73;11.40;;;;;;;0.25;100.00;100190.88;5174669;28;20450;-65
2021/12/09 08:34:53;;;;;;;31.08;10.90;;;;;;;0.32;100.00;100186.19;5171538;28;20041;-65
2021/12/09 08:37:26;;;;;;;26.25;11.30;;;;;;;0.39;100.00;100187.63;5169293;28;20113;-65
2021/12/09 08:39:57;;;;;;;22.38;10.75;;;;;;;0.45;100.00;100179.47;5172066;28;20050;-65
2021/12/09 08:42:28;;;;;;;22.92;10.77;;;;;;;0.49;100.00;100181.03;5172503;28;20026;-65
2021/12/09 08:44:59;;;;;;;27.58;11.10;;;;;;;0.56;100.00;100187.72;5174641;28;20034;-65
2021/12/09 08:47:31;;;;;;;27.80;11.55;;;;;;;0.62;100.00;100189.22;5172706;28;20412;-65
2021/12/09 08:50:05;;;;;;;25.90;11.25;;;;;;;0.69;100.00;100193.25;5174511;28;20034;-65
2021/12/09 08:52:37;;;;;;;29.00;10.88;;;;;;;0.71;100.00;100193.16;5174746;28;20049;-65
2021/12/09 08:55:09;;;;;;;22.23;10.27;;;;;;;0.79;100.00;100201.56;5174674;28;20035;-65
2021/12/09 08:57:40;;;;;;;25.40;11.18;;;;;;;0.85;100.00;100200.44;5172200;28;20053;-65
2021/12/09 09:00:15;;;;;;;27.33;10.88;;;;;;;0.87;100.00;100194.16;5174371;28;20066;-65
2021/12/09 09:02:47;;;;;;;23.52;11.07;;;;;;;0.91;100.00;100192.25;5172151;28;20034;-65
2021/12/09 09:05:19;;;;;;;24.27;10.27;;;;;;;1.00;100.00;100197.06;5174371;28;20034;-65
2021/12/09 09:07:50;;;;;;;21.40;10.45;;;;;;;1.05;100.00;100197.69;5174377;28;20031;-65
2021/12/09 09:10:24;;;;;;;27.17;11.00;;;;;;;1.12;100.00;100201.72;5174188;28;20038;-65
2021/12/09 09:12:56;;;;;;;24.23;10.75;;;;;;;1.16;100.00;100195.41;5173040;28;20034;-66
2021/12/09 09:15:28;;;;;;;24.92;11.30;;;;;;;1.24;100.00;100194.19;5172651;28;20022;-65
2021/12/09 09:18:00;;;;;;;27.00;11.38;;;;;;;1.30;100.00;100192.09;5174564;28;20057;-65
2021/12/09 09:20:37;;;;;;;23.40;10.93;;;;;;;1.38;100.00;100194.34;5173157;28;20057;-65
2021/12/09 09:23:11;;;;;;;22.35;10.90;;;;;;;1.45;100.00;100195.75;5172244;28;20512;-65
2021/12/09 09:25:42;;;;;;;25.48;10.70;;;;;;;1.49;100.00;100197.31;5172418;28;20045;-65
2021/12/09 09:28:15;;;;;;;25.17;10.70;;;;;;;1.56;100.00;100192.63;5169396;28;20027;-65
2021/12/09 09:30:53;;;;;;;25.20;11.02;;;;;;;1.63;100.00;100193.16;5172664;28;20125;-65
2021/12/09 09:33:29;;;;;;;23.02;10.63;;;;;;;1.65;100.00;100200.06;5170764;28;20050;-65
2021/12/09 09:36:00;;;;;;;23.10;10.50;;;;;;;1.73;100.00;100197.03;5173765;28;20464;-66
2021/12/09 09:38:32;;;;;;;25.35;11.38;;;;;;;1.78;100.00;100202.91;5172182;28;20114;-66
2021/12/09 09:41:09;;;;;;;20.00;10.02;;;;;;;1.81;100.00;100200.13;5175412;28;20152;-66
2021/12/09 09:43:56;;;;;;;20.10;10.48;;;;;;;1.86;100.00;100208.66;5170275;28;20554;-66
2021/12/09 09:46:30;;;;;;;23.40;10.73;;;;;;;1.94;100.00;100205.63;5155029;28;20109;-66
2021/12/09 09:49:02;;;;;;;21.52;11.00;;;;;;;1.96;100.00;100214.28;5174088;28;20031;-66
2021/12/09 09:51:36;;;;;;;23.02;10.30;;;;;;;2.01;100.00;100209.63;5172277;28;20524;-66
2021/12/09 09:54:09;;;;;;;22.08;10.27;;;;;;;2.03;100.00;100212.19;5171841;28;20037;-66
2021/12/09 09:56:42;;;;;;;19.02;10.05;;;;;;;2.00;100.00;100217.63;5154180;28;20077;-66
2021/12/09 09:59:17;;;;;;;18.63;10.02;;;;;;;2.04;100.00;100214.75;5167590;28;20030;-66
2021/12/09 10:01:52;;;;;;;24.85;11.27;;;;;;;2.11;100.00;100223.16;5169485;28;20022;-66
2021/12/09 10:04:44;;;;;;;20.98;10.63;;;;;;;2.17;100.00;100222.88;5168230;28;20121;-66
2021/12/09 10:07:20;;;;;;;20.35;9.88;;;;;;;2.26;100.00;100211.88;5167183;28;20038;-66
2021/12/09 10:09:53;;;;;;;21.75;9.85;;;;;;;2.28;100.00;100217.03;5169600;28;20157;-66
2021/12/09 10:12:25;;;;;;;23.88;10.27;;;;;;;2.37;100.00;100219.19;5163139;28;20023;-65
2021/12/09 10:14:56;;;;;;;19.33;9.80;;;;;;;2.46;100.00;100213.44;5164117;28;20023;-65
2021/12/09 10:17:28;;;;;;;20.13;10.70;;;;;;;2.50;100.00;100217.59;5162730;28;20446;-65
2021/12/09 10:20:03;;;;;;;20.00;10.75;;;;;;;2.55;100.00;100206.81;5162472;28;20089;-65
2021/12/09 10:22:35;;;;;;;23.30;10.60;;;;;;;2.63;100.00;100204.63;5168538;28;20076;-65
2021/12/09 10:25:23;;;;;;;21.30;10.43;;;;;;;2.74;100.00;100196.13;5162350;28;20097;-65
2021/12/09 10:28:00;;;;;;;21.50;10.50;;;;;;;2.75;100.00;100185.53;5164128;28;20073;-65
2021/12/09 10:30:36;;;;;;;19.75;10.30;;;;;;;2.79;100.00;100185.38;5164022;28;20066;-65
2021/12/09 10:33:08;;;;;;;21.90;10.18;;;;;;;2.85;100.00;100183.22;5161880;28;20150;-65
2021/12/09 10:35:40;;;;;;;18.48;9.85;;;;;;;2.90;100.00;100183.00;5161466;28;20042;-65
2021/12/09 10:38:11;;;;;;;17.80;9.38;;;;;;;2.88;100.00;100184.88;5159831;28;20397;-65
2021/12/09 10:40:42;;;;;;;15.93;9.57;;;;;;;2.88;100.00;100188.34;5162803;28;20098;-65
2021/12/09 10:43:17;;;;;;;20.23;10.25;;;;;;;2.94;100.00;100189.78;5163021;28;20031;-65
2021/12/09 10:45:48;;;;;;;15.73;9.60;;;;;;;2.91;100.00;100188.16;5162276;28;20057;-65
2021/12/09 10:53:50;;;;;;;15.20;10.35;;;;;;;2.98;100.00;100195.75;5162592;28;20043;-65
2021/12/09 10:56:30;;;;;;;18.10;10.07;;;;;;;3.03;100.00;100194.56;5162045;28;20035;-65
2021/12/09 10:59:02;;;;;;;16.30;10.02;;;;;;;3.12;100.00;100190.53;5166165;28;20089;-65
2021/12/09 11:01:35;;;;;;;18.85;10.40;;;;;;;3.14;100.00;100210.63;5160899;28;20448;-65
2021/12/09 11:04:06;;;;;;;18.50;10.68;;;;;;;3.14;100.00;100204.47;5160682;28;20045;-65
2021/12/09 11:06:39;;;;;;;16.80;10.57;;;;;;;3.26;100.00;100193.25;5155523;28;20042;-66
2021/12/09 11:09:12;;;;;;;19.08;10.18;;;;;;;3.22;100.00;100188.22;5160758;28;20499;-66
2021/12/09 11:11:47;;;;;;;20.20;11.77;;;;;;;3.29;100.00;100189.59;5160124;28;20038;-66
2021/12/09 11:14:21;;;;;;;16.85;11.70;;;;;;;3.30;100.00;100186.88;5161267;28;20437;-65
2021/12/09 11:17:03;;;;;;;19.08;10.43;;;;;;;3.37;100.00;100189.16;5140065;28;20034;-65
2021/12/09 11:19:40;;;;;;;14.70;9.43;;;;;;;3.42;100.00;100184.47;5162860;28;21801;-65
2021/12/09 11:22:18;;;;;;;19.98;9.80;;;;;;;3.44;100.00;100187.88;5167319;28;20030;-65
2021/12/09 11:24:58;;;;;;;15.30;9.57;;;;;;;3.52;100.00;100177.72;5160299;28;20023;-65
2021/12/09 11:27:30;;;;;;;17.33;8.90;;;;;;;3.52;100.00;100172.44;5160337;28;20043;-65
2021/12/09 11:30:12;;;;;;;14.90;8.63;;;;;;;3.52;100.00;100180.34;5162399;28;20435;-65
2021/12/09 11:32:49;;;;;;;15.73;9.00;;;;;;;3.62;100.00;100176.22;5160813;28;20031;-65
2021/12/09 11:35:26;;;;;;;14.93;8.98;;;;;;;3.63;100.00;100177.09;5159899;28;20034;-65
2021/12/09 11:38:23;;;;;;;16.58;9.30;;;;;;;3.66;100.00;100182.19;5156872;28;20074;-66
2021/12/09 11:40:57;;;;;;;13.07;8.23;;;;;;;3.74;100.00;100174.69;5163544;28;20046;-66